Time;durP1;ratioP1;P1;durP2;ratioP2;P2;SDS_P1;SDS_P2;PMS_P1;PMS_P2;Temp;Humidity;BMP_temperature;BMP_pressure;BME280_temperature;BME280_humidity;BME280_pressure;Samples;Min_cycle;Max_cycle;Signal;HPM_P1;HPM_P2
2022/09/08 00:02:49;;;;;;;18.80;13.10;;;;;;;-147.53;100.00;57128.34;10271931;28;20046;-75
2022/09/08 00:07:53;;;;;;;19.50;13.10;;;;;;;-147.53;100.00;57128.34;10261488;28;20046;-74
2022/09/08 00:12:55;;;;;;;20.15;13.07;;;;;;;-147.53;100.00;57128.34;10261979;28;20090;-75
2022/09/08 00:17:57;;;;;;;19.58;13.13;;;;;;;-147.53;100.00;57128.34;10265490;28;20047;-74
2022/09/08 00:22:58;;;;;;;20.08;13.63;;;;;;;-147.53;100.00;57128.34;10263401;28;20567;-75
2022/09/08 00:28:00;;;;;;;20.40;14.65;;;;;;;-147.53;100.00;57128.34;10266474;28;20047;-75
2022/09/08 00:33:02;;;;;;;21.98;14.85;;;;;;;-147.53;100.00;57128.34;10265941;28;20088;-75
2022/09/08 00:38:03;;;;;;;20.08;13.70;;;;;;;-147.53;100.00;57128.34;10256446;28;20054;-74
2022/09/08 00:43:05;;;;;;;22.45;15.23;;;;;;;-147.53;100.00;57128.34;10264307;28;20039;-75
2022/09/08 00:48:15;;;;;;;20.45;14.18;;;;;;;-147.53;100.00;57128.34;10273402;28;20046;-75
2022/09/08 00:53:18;;;;;;;20.77;14.63;;;;;;;-147.53;100.00;57128.34;10255781;28;20051;-76
2022/09/08 00:58:20;;;;;;;21.25;14.73;;;;;;;-147.53;100.00;57128.34;10268724;28;20130;-75
2022/09/08 01:03:21;;;;;;;23.27;15.05;;;;;;;-147.53;100.00;57128.34;10266537;28;20491;-74
2022/09/08 01:14:19;;;;;;;20.90;13.95;;;;;;;-147.53;100.00;57128.34;10260792;28;20522;-74
2022/09/08 01:19:28;;;;;;;21.13;13.60;;;;;;;-147.53;100.00;57128.34;10274230;28;20046;-75
2022/09/08 01:24:38;;;;;;;24.10;15.20;;;;;;;-147.53;100.00;57128.34;10275845;28;20047;-75
2022/09/08 01:29:43;;;;;;;21.70;14.40;;;;;;;-147.53;100.00;57128.34;10269683;28;20043;-75
2022/09/08 01:34:45;;;;;;;20.95;14.93;;;;;;;-147.53;100.00;57128.34;10270919;28;20507;-74
2022/09/08 01:39:47;;;;;;;26.65;15.80;;;;;;;-147.53;100.00;57128.34;10283859;28;20043;-75
2022/09/08 01:44:49;;;;;;;21.30;14.57;;;;;;;-147.53;100.00;57128.34;10279988;28;20058;-75
2022/09/08 01:49:50;;;;;;;26.27;18.00;;;;;;;-147.53;100.00;57128.34;10274079;28;20050;-74
2022/09/08 01:54:52;;;;;;;35.17;23.63;;;;;;;-147.53;100.00;57128.34;10279988;28;20101;-75
2022/09/08 01:59:53;;;;;;;38.75;27.52;;;;;;;-147.53;100.00;57128.34;10266863;28;20510;-74
2022/09/08 02:04:55;;;;;;;43.10;28.70;;;;;;;-147.53;100.00;57128.34;10267943;28;20430;-74
2022/09/08 02:09:56;;;;;;;44.80;29.45;;;;;;;-147.53;100.00;57128.34;10269151;28;20622;-75
2022/09/08 02:14:58;;;;;;;43.78;29.02;;;;;;;-147.53;100.00;57128.34;10267799;28;20043;-75
2022/09/08 02:19:59;;;;;;;42.22;28.48;;;;;;;-147.53;100.00;57128.34;10269654;28;20043;-75
2022/09/08 02:25:01;;;;;;;45.53;28.58;;;;;;;-147.53;100.00;57128.34;10265935;28;20046;-74
2022/09/08 02:30:02;;;;;;;41.72;27.65;;;;;;;-147.53;100.00;57128.34;10273590;28;20043;-74
2022/09/08 02:35:04;;;;;;;42.88;28.95;;;;;;;-147.53;100.00;57128.34;10273006;28;20046;-75
2022/09/08 02:40:07;;;;;;;46.17;29.42;;;;;;;-147.53;100.00;57128.34;10273894;28;20047;-76
2022/09/08 02:45:09;;;;;;;41.08;27.67;;;;;;;-147.53;100.00;57128.34;10265150;28;20054;-75
2022/09/08 02:50:11;;;;;;;38.15;26.05;;;;;;;-147.53;100.00;57128.34;10261456;28;20462;-74
2022/09/08 02:55:12;;;;;;;35.58;23.85;;;;;;;-147.53;100.00;57128.34;10273007;28;20043;-74
2022/09/08 03:00:15;;;;;;;32.42;23.45;;;;;;;-147.53;100.00;57128.34;10271672;28;20092;-74
2022/09/08 03:05:16;;;;;;;34.30;22.55;;;;;;;-147.53;100.00;57128.34;10259652;28;20043;-75
2022/09/08 03:10:23;;;;;;;35.70;24.27;;;;;;;-147.53;100.00;57128.34;10270350;28;20102;-74
2022/09/08 03:15:26;;;;;;;36.20;23.27;;;;;;;-147.53;100.00;57128.34;10267439;28;20065;-75
2022/09/08 03:20:28;;;;;;;37.67;23.40;;;;;;;-147.53;100.00;57128.34;10268338;28;20034;-74
2022/09/08 03:25:33;;;;;;;40.90;25.20;;;;;;;-147.53;100.00;57128.34;10272325;28;20046;-74
2022/09/08 03:30:34;;;;;;;40.47;23.77;;;;;;;-147.53;100.00;57128.34;10259133;28;20046;-75
2022/09/08 03:35:36;;;;;;;34.58;23.63;;;;;;;-147.53;100.00;57128.34;10269001;28;20039;-74
2022/09/08 03:40:40;;;;;;;32.67;22.77;;;;;;;-147.53;100.00;57128.34;10265317;28;20585;-76
2022/09/08 03:45:43;;;;;;;33.60;23.70;;;;;;;-147.53;100.00;57128.34;10285016;28;20119;-75
2022/09/08 03:50:45;;;;;;;39.38;25.85;;;;;;;-147.53;100.00;57128.34;10259963;28;20035;-73
2022/09/08 03:55:46;;;;;;;37.00;25.33;;;;;;;-147.53;100.00;57128.34;10264254;28;20477;-74
2022/09/08 04:00:49;;;;;;;37.72;24.55;;;;;;;-147.53;100.00;57128.34;10257751;28;20130;-76
2022/09/08 04:05:51;;;;;;;39.45;23.35;;;;;;;-147.53;100.00;57128.34;10264880;28;20098;-74
2022/09/08 04:10:52;;;;;;;37.75;23.98;;;;;;;-147.53;100.00;57128.34;10257160;28;20058;-74
2022/09/08 04:15:54;;;;;;;33.05;24.13;;;;;;;-147.53;100.00;57128.34;10264557;28;20057;-74
2022/09/08 04:21:01;;;;;;;34.80;25.20;;;;;;;-147.53;100.00;57128.34;10268272;28;20045;-74
2022/09/08 04:26:10;;;;;;;35.08;23.83;;;;;;;-147.53;100.00;57128.34;10269225;28;20042;-74
2022/09/08 04:31:14;;;;;;;33.08;23.27;;;;;;;-147.53;100.00;57128.34;10253962;28;20043;-75
2022/09/08 04:36:19;;;;;;;34.03;23.67;;;;;;;-147.53;100.00;57128.34;10267783;28;20039;-74
2022/09/08 04:41:29;;;;;;;31.67;23.20;;;;;;;-147.53;100.00;57128.34;10261346;28;20046;-73
2022/09/08 04:46:32;;;;;;;35.40;23.23;;;;;;;-147.53;100.00;57128.34;10261358;28;20527;-74
2022/09/08 04:51:34;;;;;;;35.95;23.35;;;;;;;-147.53;100.00;57128.34;10262427;28;20043;-75
2022/09/08 04:56:36;;;;;;;34.85;23.77;;;;;;;-147.53;100.00;57128.34;10264858;28;20043;-75
2022/09/08 05:01:37;;;;;;;34.20;22.95;;;;;;;-147.53;100.00;57128.34;10263527;28;20158;-74
2022/09/08 05:06:39;;;;;;;31.50;22.73;;;;;;;-147.53;100.00;57128.34;10263415;28;20042;-74
2022/09/08 05:11:40;;;;;;;35.53;23.88;;;;;;;-147.53;100.00;57128.34;10264922;28;20038;-74
2022/09/08 05:16:42;;;;;;;35.25;23.98;;;;;;;-147.53;100.00;57128.34;10265345;28;20043;-74
2022/09/08 05:21:43;;;;;;;38.28;24.25;;;;;;;-147.53;100.00;57128.34;10262504;28;20050;-74
2022/09/08 05:26:45;;;;;;;34.30;22.38;;;;;;;-147.53;100.00;57128.34;10263455;28;20039;-73
2022/09/08 05:31:47;;;;;;;29.92;21.70;;;;;;;-147.53;100.00;57128.34;10266273;28;20069;-74
2022/09/08 05:36:49;;;;;;;32.17;21.52;;;;;;;-147.53;100.00;57128.34;10259199;28;20430;-74
2022/09/08 05:41:52;;;;;;;32.90;21.60;;;;;;;-147.53;100.00;57128.34;10263601;28;20415;-72
2022/09/08 05:46:53;;;;;;;30.42;22.90;;;;;;;-147.53;100.00;57128.34;10261304;28;20695;-74
2022/09/08 05:51:55;;;;;;;30.30;21.40;;;;;;;-147.53;100.00;57128.34;10263045;28;20462;-74
2022/09/08 05:56:57;;;;;;;30.05;21.75;;;;;;;-147.53;100.00;57128.34;10272324;28;20047;-74
2022/09/08 06:01:59;;;;;;;28.70;20.77;;;;;;;-147.53;100.00;57128.34;10265078;28;20047;-74
2022/09/08 06:07:00;;;;;;;27.85;20.88;;;;;;;-147.53;100.00;57128.34;10265849;28;20082;-73
2022/09/08 06:12:02;;;;;;;27.73;19.90;;;;;;;-147.53;100.00;57128.34;10274896;28;20043;-74
2022/09/08 06:17:06;;;;;;;25.45;19.15;;;;;;;-147.53;100.00;57128.34;10264992;28;20057;-74
2022/09/08 06:22:08;;;;;;;26.85;19.40;;;;;;;-147.53;100.00;57128.34;10274691;28;20074;-80
2022/09/08 06:27:21;;;;;;;27.45;19.33;;;;;;;-147.53;100.00;57128.34;10286229;28;20047;-81
2022/09/08 06:32:40;;;;;;;25.65;19.25;;;;;;;-147.53;100.00;57128.34;10286331;28;20046;-80
2022/09/08 06:37:47;;;;;;;27.20;18.60;;;;;;;-147.53;100.00;57128.34;10272515;28;22697;-79
2022/09/08 06:43:01;;;;;;;27.23;19.95;;;;;;;-147.53;100.00;57128.34;10266386;28;20066;-79
2022/09/08 06:48:12;;;;;;;32.47;18.58;;;;;;;-147.53;100.00;57128.34;10283215;28;20046;-82
2022/09/08 06:53:22;;;;;;;24.92;17.90;;;;;;;-147.53;100.00;57128.34;10294718;28;20093;-81
2022/09/08 06:58:30;;;;;;;26.23;18.83;;;;;;;-147.53;100.00;57128.34;10265047;28;20710;-81
2022/09/08 07:04:09;;;;;;;25.15;18.50;;;;;;;-147.53;100.00;57128.34;10274435;28;20060;-82
2022/09/08 07:09:26;;;;;;;25.10;18.23;;;;;;;-147.53;100.00;57128.34;10279496;28;20142;-82
2022/09/08 07:14:39;;;;;;;28.20;19.17;;;;;;;-147.53;100.00;57128.34;10279314;28;20050;-81
2022/09/08 07:19:49;;;;;;;26.75;18.30;;;;;;;-147.53;100.00;57128.34;10266899;28;20042;-82
2022/09/08 07:24:53;;;;;;;25.35;18.00;;;;;;;-147.53;100.00;57128.34;10270158;28;20050;-80
2022/09/08 07:30:00;;;;;;;26.63;18.05;;;;;;;-147.53;100.00;57128.34;10273210;28;20117;-82
2022/09/08 07:35:05;;;;;;;23.63;17.65;;;;;;;-147.53;100.00;57128.34;10276803;28;20587;-83
2022/09/08 07:40:19;;;;;;;25.05;18.23;;;;;;;-147.53;100.00;57128.34;10270145;28;20051;-81
2022/09/08 07:45:46;;;;;;;25.40;19.20;;;;;;;-147.53;100.00;57128.34;10216023;28;20051;-81
2022/09/08 07:50:58;;;;;;;24.17;16.98;;;;;;;-147.53;100.00;57128.34;10236746;28;20038;-82
2022/09/08 07:56:13;;;;;;;25.70;17.45;;;;;;;-147.53;100.00;57128.34;10229429;28;20699;-81
2022/09/08 08:01:24;;;;;;;24.70;17.90;;;;;;;-147.53;100.00;57128.34;10239478;28;20672;-82
2022/09/08 08:06:36;;;;;;;27.45;18.60;;;;;;;-147.53;100.00;57128.34;10242722;28;20047;-83
2022/09/08 08:11:45;;;;;;;24.60;17.55;;;;;;;-147.53;100.00;57128.34;10243081;28;20150;-82
2022/09/08 08:16:55;;;;;;;25.60;18.35;;;;;;;-147.53;100.00;57128.34;10223726;28;20464;-82
2022/09/08 08:22:10;;;;;;;;;;;;;;;-147.53;100.00;57128.34;10247500;28;20047;-84
2022/09/08 08:27:33;;;;;;;28.92;18.73;;;;;;;-147.53;100.00;57128.34;10248240;28;19922;-82
2022/09/08 08:32:38;;;;;;;26.00;18.90;;;;;;;-147.53;100.00;57128.34;10249271;28;20047;-82
2022/09/08 08:37:43;;;;;;;27.98;19.05;;;;;;;-147.53;100.00;57128.34;10267832;28;20039;-82
2022/09/08 08:43:20;;;;;;;23.48;18.17;;;;;;;-147.53;100.00;57128.34;10272208;28;20042;-84
2022/09/08 08:48:59;;;;;;;27.92;18.13;;;;;;;-147.53;100.00;57128.34;10254766;28;20053;-83
2022/09/08 08:54:19;;;;;;;26.13;18.45;;;;;;;-147.53;100.00;57128.34;10262792;28;20049;-82
2022/09/08 08:59:53;;;;;;;25.67;18.58;;;;;;;-147.53;100.00;57128.34;10270054;28;20039;-82
2022/09/08 09:04:57;;;;;;;25.77;17.75;;;;;;;-147.53;100.00;57128.34;10244412;28;20054;-87
2022/09/08 09:10:31;;;;;;;33.53;19.40;;;;;;;-147.53;100.00;57128.34;10271807;28;20054;-86
2022/09/08 09:16:10;;;;;;;26.75;18.83;;;;;;;-147.53;100.00;57128.34;10274625;28;20039;-87
2022/09/08 09:21:36;;;;;;;29.25;19.90;;;;;;;-147.53;100.00;57128.34;10277860;28;20062;-87
2022/09/08 09:26:46;;;;;;;26.52;19.90;;;;;;;-147.53;100.00;57128.34;10263500;28;20723;-85
2022/09/08 09:32:15;;;;;;;28.15;20.10;;;;;;;-147.53;100.00;57128.34;10271229;28;20035;-83
2022/09/08 09:37:29;;;;;;;29.55;19.75;;;;;;;-147.53;100.00;57128.34;10288547;28;20129;-85
2022/09/08 09:42:34;;;;;;;29.83;20.52;;;;;;;-147.53;100.00;57128.34;10289898;28;20042;-88
2022/09/08 09:47:54;;;;;;;26.63;19.55;;;;;;;-147.53;100.00;57128.34;10261814;28;20039;-82
2022/09/08 09:53:25;;;;;;;26.77;18.65;;;;;;;-147.53;100.00;57128.34;10289377;28;20074;-87
2022/09/08 09:58:56;;;;;;;28.07;18.40;;;;;;;-147.53;100.00;57128.34;10268458;28;20065;-87
2022/09/08 10:04:13;;;;;;;26.08;15.90;;;;;;;-147.53;100.00;57128.34;10259942;28;20074;-91
2022/09/08 10:09:47;;;;;;;24.98;16.80;;;;;;;-147.53;100.00;57128.34;10266330;28;20059;-88
2022/09/08 10:15:23;;;;;;;26.15;18.02;;;;;;;-147.53;100.00;57128.34;10276567;28;20046;-84
2022/09/08 10:20:58;;;;;;;27.65;19.60;;;;;;;-147.53;100.00;57128.34;10280648;28;20309;-84
2022/09/08 10:26:35;;;;;;;27.38;19.08;;;;;;;-147.53;100.00;57128.34;10262924;28;20354;-90
2022/09/08 10:32:27;;;;;;;30.40;19.95;;;;;;;-147.53;100.00;57128.34;10261590;28;20466;-89
2022/09/08 10:37:54;;;;;;;29.17;20.77;;;;;;;-147.53;100.00;57128.34;10240571;28;20058;-85
2022/09/08 10:43:37;;;;;;;30.95;21.70;;;;;;;-147.53;100.00;57128.34;10269610;28;20055;-77
2022/09/08 10:48:54;;;;;;;28.95;20.58;;;;;;;-147.53;100.00;57128.34;10259662;28;20610;-79
2022/09/08 10:54:05;;;;;;;30.42;20.80;;;;;;;-147.53;100.00;57128.34;10282844;28;20100;-79
2022/09/08 10:59:25;;;;;;;31.88;22.38;;;;;;;-147.53;100.00;57128.34;10275504;28;20054;-79
2022/09/08 11:05:07;;;;;;;28.98;20.92;;;;;;;-147.53;100.00;57128.34;10244421;28;20055;-78
2022/09/08 11:10:28;;;;;;;52.13;20.75;;;;;;;-147.53;100.00;57128.34;10263286;28;20073;-80
2022/09/08 11:15:49;;;;;;;25.52;19.42;;;;;;;-147.53;100.00;57128.34;10271065;28;20138;-79
2022/09/08 11:20:52;;;;;;;31.10;18.95;;;;;;;-147.53;100.00;57128.34;10282106;28;20121;-78
2022/09/08 11:26:12;;;;;;;21.58;14.77;;;;;;;-147.53;100.00;57128.34;10245784;28;20046;-78
2022/09/08 11:31:37;;;;;;;25.45;15.00;;;;;;;-147.53;100.00;57128.34;10256909;28;20925;-80
2022/09/08 11:37:00;;;;;;;19.58;13.77;;;;;;;-147.53;100.00;57128.34;10255594;28;20101;-79
2022/09/08 11:42:17;;;;;;;19.58;13.07;;;;;;;-147.53;100.00;57128.34;10243018;28;20039;-79
2022/09/08 11:47:43;;;;;;;17.92;12.88;;;;;;;-147.53;100.00;57128.34;10239595;28;20047;-78
2022/09/08 11:53:14;;;;;;;18.65;11.60;;;;;;;-147.53;100.00;57128.34;10256653;28;20038;-78
2022/09/08 11:59:16;;;;;;;18.77;12.02;;;;;;;-147.53;100.00;57128.34;10249116;28;20129;-78
2022/09/08 12:04:42;;;;;;;18.75;12.88;;;;;;;-147.53;100.00;57128.34;10281802;28;20073;-78
2022/09/08 12:09:54;;;;;;;19.40;12.85;;;;;;;-147.53;100.00;57128.34;10283483;28;20065;-79
2022/09/08 12:15:36;;;;;;;19.38;11.80;;;;;;;-147.53;100.00;57128.34;10293896;28;20259;-78
2022/09/08 12:20:38;;;;;;;19.23;11.50;;;;;;;-147.53;100.00;57128.34;10288291;28;20057;-78
2022/09/08 12:26:13;;;;;;;17.65;11.32;;;;;;;-147.53;100.00;57128.34;10286373;28;20556;-79
2022/09/08 12:31:42;;;;;;;18.35;12.02;;;;;;;-147.53;100.00;57128.34;10286574;28;20392;-80
2022/09/08 12:36:50;;;;;;;20.80;11.85;;;;;;;-147.53;100.00;57128.34;10287015;28;20088;-79
2022/09/08 12:42:06;;;;;;;16.70;11.45;;;;;;;-147.53;100.00;57128.34;10276099;28;20062;-78
2022/09/08 12:47:26;;;;;;;18.85;11.95;;;;;;;-147.53;100.00;57128.34;10281279;28;20043;-78
2022/09/08 12:52:27;;;;;;;;;;;;;;;-147.53;100.00;57128.34;10278435;28;20062;-78
2022/09/08 12:57:46;;;;;;;18.55;12.20;;;;;;;-147.53;100.00;57128.34;10290838;28;19926;-78
2022/09/08 13:03:14;;;;;;;18.63;12.77;;;;;;;-147.53;100.00;57128.34;10287126;28;20111;-78
2022/09/08 13:08:18;;;;;;;17.08;12.15;;;;;;;-147.53;100.00;57128.34;10272547;28;20054;-78
2022/09/08 13:13:37;;;;;;;19.00;12.88;;;;;;;-147.53;100.00;57128.34;10277608;28;20648;-78
2022/09/08 13:19:13;;;;;;;19.15;12.55;;;;;;;-147.53;100.00;57128.34;10276172;28;20042;-79
2022/09/08 13:24:25;;;;;;;20.20;13.25;;;;;;;-147.53;100.00;57128.34;10265888;28;20413;-78
2022/09/08 13:30:23;;;;;;;19.27;12.68;;;;;;;-147.53;100.00;57128.34;10262060;28;20043;-77
2022/09/08 13:35:55;;;;;;;19.40;11.68;;;;;;;-147.53;100.00;57128.34;10194852;28;20054;-77
2022/09/08 13:41:20;;;;;;;21.60;11.50;;;;;;;-147.53;100.00;57128.34;10285628;28;20050;-78
2022/09/08 13:46:55;;;;;;;17.65;11.85;;;;;;;-147.53;100.00;57128.34;10294645;28;20053;-78
2022/09/08 13:52:00;;;;;;;15.60;11.32;;;;;;;-147.53;100.00;57128.34;10292415;28;20443;-78
2022/09/08 13:57:35;;;;;;;19.60;12.57;;;;;;;-147.53;100.00;57128.34;10294941;28;20518;-78
2022/09/08 14:02:39;;;;;;;19.48;11.35;;;;;;;-147.53;100.00;57128.34;10284288;28;20042;-79
2022/09/08 14:07:49;;;;;;;16.48;10.75;;;;;;;-147.53;100.00;57128.34;10292875;28;20043;-79
2022/09/08 14:13:14;;;;;;;19.77;10.90;;;;;;;-147.53;100.00;57128.34;10273508;28;20101;-79
2022/09/08 14:18:18;;;;;;;16.92;11.52;;;;;;;-147.53;100.00;57128.34;10292016;28;20054;-79
2022/09/08 14:23:32;;;;;;;15.52;10.02;;;;;;;-147.53;100.00;57128.34;10297342;28;20051;-79
2022/09/08 14:28:51;;;;;;;15.20;9.50;;;;;;;-147.53;100.00;57128.34;10267353;28;20111;-77
2022/09/08 14:33:57;;;;;;;21.75;11.20;;;;;;;-147.53;100.00;57128.34;10283725;28;20039;-79
2022/09/08 14:39:45;;;;;;;16.15;9.27;;;;;;;-147.53;100.00;57128.34;10283267;28;20083;-78
2022/09/08 14:44:55;;;;;;;7.75;4.03;;;;;;;-147.53;100.00;57128.34;10241247;28;20089;-78
2022/09/08 14:50:30;;;;;;;6.57;3.38;;;;;;;-147.53;100.00;57128.34;10280256;28;20101;-78
2022/09/08 14:55:37;;;;;;;5.50;2.67;;;;;;;-147.53;100.00;57128.34;10281248;28;20046;-77
2022/09/08 15:00:41;;;;;;;6.57;3.47;;;;;;;-147.53;100.00;57128.34;10283048;28;20074;-77
2022/09/08 15:05:45;;;;;;;6.40;3.05;;;;;;;-147.53;100.00;57128.34;10267743;28;20101;-79
2022/09/08 15:11:09;;;;;;;5.68;3.17;;;;;;;-147.53;100.00;57128.34;10284092;28;20050;-77
2022/09/08 15:16:16;;;;;;;7.15;3.53;;;;;;;-147.53;100.00;57128.34;10278708;28;20061;-78
2022/09/08 15:21:25;;;;;;;8.32;4.03;;;;;;;-147.53;100.00;57128.34;10270780;28;20125;-80
2022/09/08 15:26:36;;;;;;;10.05;4.38;;;;;;;-147.53;100.00;57128.34;10285464;28;20125;-78
2022/09/08 15:32:08;;;;;;;10.20;4.40;;;;;;;-147.53;100.00;57128.34;10280130;28;20102;-81
2022/09/08 15:37:37;;;;;;;9.38;4.95;;;;;;;-147.53;100.00;57128.34;10290923;28;20047;-80
2022/09/08 15:43:17;;;;;;;11.10;4.75;;;;;;;-147.53;100.00;57128.34;10271636;28;20078;-82
2022/09/08 15:48:51;;;;;;;9.43;4.97;;;;;;;-147.53;100.00;57128.34;10201202;28;20048;-81
2022/09/08 15:54:28;;;;;;;8.70;5.05;;;;;;;-147.53;100.00;57128.34;10274681;28;20454;-81
2022/09/08 15:59:46;;;;;;;9.95;5.85;;;;;;;-147.53;100.00;57128.34;10247794;28;20051;-83
2022/09/08 16:05:19;;;;;;;10.60;6.07;;;;;;;-147.53;100.00;57128.34;10254521;28;20049;-84
2022/09/08 16:10:22;;;;;;;9.20;4.15;;;;;;;-147.53;100.00;57128.34;10266179;28;20534;-84
2022/09/08 16:15:47;;;;;;;7.20;4.13;;;;;;;-147.53;100.00;57128.34;10266365;28;20121;-84
2022/09/08 16:21:18;;;;;;;7.95;3.88;;;;;;;-147.53;100.00;57128.34;10258429;28;20042;-84
2022/09/08 16:26:23;;;;;;;7.82;3.40;;;;;;;-147.53;100.00;57128.34;10248566;28;20264;-84
2022/09/08 16:31:38;;;;;;;6.55;3.45;;;;;;;-147.53;100.00;57128.34;10259043;28;20058;-83
2022/09/08 16:36:43;;;;;;;7.93;3.67;;;;;;;-147.53;100.00;57128.34;10270415;28;20467;-85
2022/09/08 16:42:10;;;;;;;8.38;3.95;;;;;;;-147.53;100.00;57128.34;10277514;28;20043;-83
2022/09/08 16:47:13;;;;;;;6.57;3.53;;;;;;;-147.53;100.00;57128.34;10262654;28;20058;-83
2022/09/08 16:52:40;;;;;;;7.40;3.50;;;;;;;-147.53;100.00;57128.34;10263210;28;20035;-82
2022/09/08 16:57:46;;;;;;;12.00;3.25;;;;;;;-147.53;100.00;57128.34;10264796;28;20554;-82
2022/09/08 17:03:07;;;;;;;8.90;3.55;;;;;;;-147.53;100.00;57128.34;10260641;28;22028;-82
2022/09/08 17:08:13;;;;;;;9.23;3.80;;;;;;;-147.53;100.00;57128.34;10254023;28;20075;-82
2022/09/08 17:13:18;;;;;;;7.82;3.65;;;;;;;-147.53;100.00;57128.34;10269812;28;20503;-82
2022/09/08 17:18:39;;;;;;;6.28;3.42;;;;;;;-147.53;100.00;57128.34;10269542;28;20526;-81
2022/09/08 17:24:03;;;;;;;7.32;3.33;;;;;;;-147.53;100.00;57128.34;10259789;28;20423;-81
2022/09/08 17:29:51;;;;;;;5.88;3.25;;;;;;;-147.53;100.00;57128.34;10264792;28;20043;-83
2022/09/08 17:34:54;;;;;;;6.45;3.25;;;;;;;-147.53;100.00;57128.34;10235644;28;20126;-83
2022/09/08 17:40:23;;;;;;;7.25;3.08;;;;;;;-147.53;100.00;57128.34;10252764;28;20043;-82
2022/09/08 17:45:38;;;;;;;5.43;2.63;;;;;;;-147.53;100.00;57128.34;10250636;28;20043;-83
2022/09/08 17:51:03;;;;;;;7.00;2.80;;;;;;;-147.53;100.00;57128.34;10253490;28;21324;-83
2022/09/08 17:56:43;;;;;;;7.63;3.42;;;;;;;-147.53;100.00;57128.34;10273987;28;20048;-83
2022/09/08 18:02:12;;;;;;;7.77;3.07;;;;;;;-147.53;100.00;57128.34;10293227;28;20115;-84
2022/09/08 18:07:19;;;;;;;9.73;3.10;;;;;;;-147.53;100.00;57128.34;10274440;28;20277;-82
2022/09/08 18:12:29;;;;;;;7.97;3.40;;;;;;;-147.53;100.00;57128.34;10259667;28;20118;-82
2022/09/08 18:17:42;;;;;;;7.88;3.35;;;;;;;-147.53;100.00;57128.34;10265556;28;20522;-82
2022/09/08 18:22:53;;;;;;;7.30;3.17;;;;;;;-147.53;100.00;57128.34;10274739;28;20045;-83
2022/09/08 18:28:15;;;;;;;5.53;3.00;;;;;;;-147.53;100.00;57128.34;10267133;28;20086;-82
2022/09/08 18:33:46;;;;;;;5.72;3.50;;;;;;;-147.53;100.00;57128.34;10276318;28;20042;-83
2022/09/08 18:38:51;;;;;;;6.35;3.33;;;;;;;-147.53;100.00;57128.34;10258950;28;20133;-81
2022/09/08 18:44:25;;;;;;;9.50;3.77;;;;;;;-147.53;100.00;57128.34;10283722;28;20051;-82
2022/09/08 18:49:38;;;;;;;8.05;3.80;;;;;;;-147.53;100.00;57128.34;10275915;28;20051;-82
2022/09/08 18:55:20;;;;;;;11.30;3.85;;;;;;;-147.53;100.00;57128.34;10276294;28;20049;-83
2022/09/08 19:00:23;;;;;;;9.07;3.50;;;;;;;-147.53;100.00;57128.34;10276778;28;20047;-83
2022/09/08 19:05:26;;;;;;;7.05;3.58;;;;;;;-147.53;100.00;57128.34;10267851;28;20494;-82
2022/09/08 19:10:43;;;;;;;8.40;3.85;;;;;;;-147.53;100.00;57128.34;10269488;28;20597;-82
2022/09/08 19:16:08;;;;;;;8.48;4.20;;;;;;;-147.53;100.00;57128.34;10266420;28;20038;-81
2022/09/08 19:21:36;;;;;;;10.02;4.38;;;;;;;-147.53;100.00;57128.34;10260119;28;20133;-82
2022/09/08 19:27:06;;;;;;;9.77;4.57;;;;;;;-147.53;100.00;57128.34;10246846;28;20053;-82
2022/09/08 19:32:10;;;;;;;11.30;4.43;;;;;;;-147.53;100.00;57128.34;10274873;28;20061;-82
2022/09/08 19:37:21;;;;;;;9.07;4.43;;;;;;;-147.53;100.00;57128.34;10282916;28;20054;-81
2022/09/08 19:42:34;;;;;;;8.07;4.20;;;;;;;-147.53;100.00;57128.34;10281775;28;20647;-82
2022/09/08 19:48:14;;;;;;;9.73;4.07;;;;;;;-147.53;100.00;57128.34;10275680;28;20070;-82
2022/09/08 19:53:34;;;;;;;10.52;4.65;;;;;;;-147.53;100.00;57128.34;10271404;28;20039;-82
2022/09/08 19:58:40;;;;;;;9.40;4.63;;;;;;;-147.53;100.00;57128.34;10268718;28;20053;-82
2022/09/08 20:03:51;;;;;;;12.40;5.40;;;;;;;-147.53;100.00;57128.34;10272781;28;20195;-82
2022/09/08 20:09:04;;;;;;;14.02;4.43;;;;;;;-147.53;100.00;57128.34;10276797;28;20046;-81
2022/09/08 20:14:06;;;;;;;8.73;4.68;;;;;;;-147.53;100.00;57128.34;10257282;28;20047;-81
2022/09/08 20:19:32;;;;;;;9.55;4.57;;;;;;;-147.53;100.00;57128.34;10282021;28;20507;-82
2022/09/08 20:24:41;;;;;;;7.63;4.43;;;;;;;-147.53;100.00;57128.34;10267880;28;20307;-83
2022/09/08 20:30:00;;;;;;;;;;;;;;;-147.53;100.00;57128.34;10284392;28;20110;-80
2022/09/08 20:35:24;;;;;;;9.27;4.80;;;;;;;-147.53;100.00;57128.34;10276837;28;19929;-80
2022/09/08 20:40:32;;;;;;;10.00;5.32;;;;;;;-147.53;100.00;57128.34;10266272;28;20061;-80
2022/09/08 20:45:39;;;;;;;11.13;5.80;;;;;;;-147.53;100.00;57128.34;10273455;28;20046;-81
2022/09/08 20:50:54;;;;;;;14.05;7.22;;;;;;;-147.53;100.00;57128.34;10273002;28;20035;-80
2022/09/08 20:56:06;;;;;;;12.27;7.10;;;;;;;-147.53;100.00;57128.34;10275795;28;20047;-81
2022/09/08 21:01:18;;;;;;;16.77;7.38;;;;;;;-147.53;100.00;57128.34;10280742;28;20046;-82
2022/09/08 21:06:22;;;;;;;11.90;7.65;;;;;;;-147.53;100.00;57128.34;10264324;28;20069;-80
2022/09/08 21:11:37;;;;;;;13.30;6.65;;;;;;;-147.53;100.00;57128.34;10275623;28;20049;-83
2022/09/08 21:16:53;;;;;;;14.30;7.30;;;;;;;-147.53;100.00;57128.34;10273177;28;20046;-81
2022/09/08 21:22:05;;;;;;;14.85;8.20;;;;;;;-147.53;100.00;57128.34;10281772;28;20081;-81
2022/09/08 21:27:31;;;;;;;14.95;7.55;;;;;;;-147.53;100.00;57128.34;10278228;28;20051;-82
2022/09/08 21:32:57;;;;;;;12.85;7.90;;;;;;;-147.53;100.00;57128.34;10275779;28;20042;-80
2022/09/08 21:38:07;;;;;;;14.82;7.85;;;;;;;-147.53;100.00;57128.34;10276591;28;20369;-80
2022/09/08 21:43:16;;;;;;;18.50;8.57;;;;;;;-147.53;100.00;57128.34;10266198;28;20050;-80
2022/09/08 21:48:22;;;;;;;12.68;7.88;;;;;;;-147.53;100.00;57128.34;10276746;28;20046;-83
2022/09/08 21:53:46;;;;;;;17.90;8.02;;;;;;;-147.53;100.00;57128.34;10270146;28;20053;-82
2022/09/08 21:59:00;;;;;;;16.10;8.55;;;;;;;-147.53;100.00;57128.34;10269647;28;20043;-82
2022/09/08 22:04:15;;;;;;;14.65;7.85;;;;;;;-147.53;100.00;57128.34;10272614;28;20518;-80
2022/09/08 22:09:20;;;;;;;12.95;8.10;;;;;;;-147.53;100.00;57128.34;10265859;28;20047;-81
2022/09/08 22:15:00;;;;;;;15.15;8.88;;;;;;;-147.53;100.00;57128.34;10275024;28;20120;-82
2022/09/08 22:20:23;;;;;;;18.73;8.47;;;;;;;-147.53;100.00;57128.34;10247647;28;20052;-82
2022/09/08 22:25:53;;;;;;;14.77;8.52;;;;;;;-147.53;100.00;57128.34;10261528;28;20498;-82
2022/09/08 22:31:15;;;;;;;14.23;8.15;;;;;;;-147.53;100.00;57128.34;10274397;28;20521;-81
2022/09/08 22:36:25;;;;;;;17.70;9.05;;;;;;;-147.53;100.00;57128.34;10273812;28;20039;-81
2022/09/08 22:41:39;;;;;;;16.80;9.75;;;;;;;-147.53;100.00;57128.34;10271021;28;20050;-81
2022/09/08 22:46:52;;;;;;;15.48;8.85;;;;;;;-147.53;100.00;57128.34;10266409;28;20039;-81
2022/09/08 22:52:23;;;;;;;17.67;9.35;;;;;;;-147.53;100.00;57128.34;10283253;28;20076;-81
2022/09/08 22:57:32;;;;;;;14.98;8.18;;;;;;;-147.53;100.00;57128.34;10279270;28;20046;-81
2022/09/08 23:02:39;;;;;;;15.23;8.88;;;;;;;-147.53;100.00;57128.34;10288953;28;20043;-81
2022/09/08 23:07:41;;;;;;;14.80;8.50;;;;;;;-147.53;100.00;57128.34;10279429;28;20050;-81
2022/09/08 23:13:13;;;;;;;17.40;10.10;;;;;;;-147.53;100.00;57128.34;10268001;28;20047;-81
2022/09/08 23:18:25;;;;;;;20.63;9.07;;;;;;;-147.53;100.00;57128.34;10283523;28;20057;-82